Time;durP1;ratioP1;P1;durP2;ratioP2;P2;SDS_P1;SDS_P2;PMS_P1;PMS_P2;Temp;Humidity;BMP_temperature;BMP_pressure;BME280_temperature;BME280_humidity;BME280_pressure;Samples;Min_cycle;Max_cycle;Signal;HPM_P1;HPM_P2
2023/06/09 00:02:01;;;;;;;;;;;;;;;20.22;100.00;98922.59;4305796;33;34669;-94
2023/06/09 00:04:35;;;;;;;;;;;;;;;20.45;100.00;98937.16;4305868;33;36247;-93
2023/06/09 00:07:04;;;;;;;;;;;;;;;20.39;100.00;98942.81;4305821;33;34970;-93
2023/06/09 00:09:32;;;;;;;;;;;;;;;20.52;100.00;98935.84;4292709;33;33476;-92
2023/06/09 00:12:00;;;;;;;;;;;;;;;20.35;100.00;98938.66;4305530;33;34992;-92
2023/06/09 00:14:28;;;;;;;;;;;;;;;20.24;96.27;98945.41;4304701;33;34772;-92
2023/06/09 00:16:56;;;;;;;;;;;;;;;19.79;97.70;98946.16;4304559;33;34383;-92
2023/06/09 00:19:24;;;;;;;;;;;;;;;19.72;99.28;98942.97;4304753;33;33436;-93
2023/06/09 00:21:51;;;;;;;;;;;;;;;19.89;95.97;98936.81;4304600;33;34281;-93
2023/06/09 00:24:21;;;;;;;;;;;;;;;19.61;97.28;98940.06;4304244;33;35488;-93
2023/06/09 00:26:50;;;;;;;;;;;;;;;19.92;95.20;98947.19;4305626;33;35056;-93
2023/06/09 00:29:18;;;;;;;;;;;;;;;19.72;95.52;98950.91;4305546;33;33400;-93
2023/06/09 00:31:46;;;;;;;;;;;;;;;19.29;100.00;98945.31;4305991;33;34127;-92
2023/06/09 00:34:15;;;;;;;;;;;;;;;19.26;100.00;98937.53;4305527;33;35658;-93
2023/06/09 00:36:43;;;;;;;;;;;;;;;19.18;100.00;98929.16;4305479;33;35094;-93
2023/06/09 00:39:11;;;;;;;;;;;;;;;18.97;100.00;98937.28;4305657;33;33403;-93
2023/06/09 00:41:39;;;;;;;;;;;;;;;19.04;100.00;98928.09;4304434;33;33698;-93
2023/06/09 00:44:06;;;;;;;;;;;;;;;18.80;100.00;98931.97;4304470;33;35696;-93
2023/06/09 00:46:35;;;;;;;;;;;;;;;18.76;100.00;98929.50;4304333;33;33956;-93
2023/06/09 00:49:03;;;;;;;;;;;;;;;18.86;100.00;98923.78;4304421;33;34027;-92
2023/06/09 00:51:32;;;;;;;;;;;;;;;18.91;100.00;98914.69;4304320;33;35023;-94
2023/06/09 00:54:00;;;;;;;;;;;;;;;19.17;100.00;98916.91;4304391;33;35060;-95
2023/06/09 00:56:30;;;;;;;;;;;;;;;18.71;100.00;98915.69;4304340;33;34748;-93
2023/06/09 00:58:57;;;;;;;;;;;;;;;18.82;100.00;98907.25;4303661;33;34043;-94
2023/06/09 01:01:28;;;;;;;;;;;;;;;18.42;100.00;98903.09;4304404;33;34941;-93
2023/06/09 01:03:58;;;;;;;;;;;;;;;18.24;100.00;98897.81;4305365;33;36008;-93
2023/06/09 01:06:30;;;;;;;;;;;;;;;18.26;100.00;98893.31;4305268;33;35390;-94
2023/06/09 01:09:00;;;;;;;;;;;;;;;18.57;100.00;98887.38;4304380;33;33237;-94
2023/06/09 01:11:40;;;;;;;;;;;;;;;18.26;100.00;98890.69;4304083;33;34294;-93
2023/06/09 01:14:10;;;;;;;;;;;;;;;18.13;100.00;98885.16;4304159;33;35961;-93
2023/06/09 01:16:40;;;;;;;;;;;;;;;18.40;100.00;98863.63;4304185;33;35130;-94
2023/06/09 01:19:15;;;;;;;;;;;;;;;18.15;100.00;98858.75;4304220;33;33369;-93
2023/06/09 01:21:44;;;;;;;;;;;;;;;18.19;100.00;98847.12;4304349;33;34098;-93
2023/06/09 01:24:16;;;;;;;;;;;;;;;18.26;100.00;98845.88;4304300;33;35140;-94
2023/06/09 01:26:44;;;;;;;;;;;;;;;17.96;100.00;98862.28;4292381;33;35003;-93
2023/06/09 01:29:13;;;;;;;;;;;;;;;17.96;100.00;98853.53;4304363;33;33423;-93
2023/06/09 01:31:41;;;;;;;;;;;;;;;17.99;100.00;98856.88;4305239;33;34391;-93
2023/06/09 01:34:09;;;;;;;;;;;;;;;18.41;100.00;98856.59;4304125;33;35386;-92
2023/06/09 01:36:37;;;;;;;;;;;;;;;19.01;100.00;98856.19;4305088;33;34706;-93
2023/06/09 01:39:05;;;;;;;;;;;;;;;18.64;100.00;98858.91;4305254;33;33167;-93
2023/06/09 01:41:33;;;;;;;;;;;;;;;18.59;100.00;98854.81;4291945;33;33949;-94
2023/06/09 01:44:01;;;;;;;;;;;;;;;18.73;100.00;98861.06;4305431;33;36052;-94
2023/06/09 01:46:28;;;;;;;;;;;;;;;18.38;100.00;98860.22;4305183;33;35306;-94
2023/06/09 01:49:06;;;;;;;;;;;;;;;18.38;100.00;98855.81;4304223;33;33317;-92
2023/06/09 01:51:33;;;;;;;;;;;;;;;18.49;100.00;98862.31;4304316;33;33985;-92
2023/06/09 01:54:08;;;;;;;;;;;;;;;18.35;100.00;98861.25;4305157;33;35997;-93
2023/06/09 01:56:43;;;;;;;;;;;;;;;18.19;100.00;98861.16;4304067;33;34425;-93
2023/06/09 01:59:13;;;;;;;;;;;;;;;18.07;100.00;98861.78;4304105;33;34156;-94
2023/06/09 02:01:41;;;;;;;;;;;;;;;18.00;100.00;98871.75;4303941;33;34298;-93
2023/06/09 02:04:09;;;;;;;;;;;;;;;18.05;100.00;98879.41;4303943;33;34695;-94
2023/06/09 02:06:37;;;;;;;;;;;;;;;18.09;100.00;98870.44;4305170;33;34347;-92
2023/06/09 02:09:06;;;;;;;;;;;;;;;17.92;100.00;98873.06;4303880;33;33181;-93
2023/06/09 02:11:36;;;;;;;;;;;;;;;18.09;100.00;98870.44;4304825;33;34264;-93
2023/06/09 02:14:04;;;;;;;;;;;;;;;18.18;100.00;98877.91;4303845;33;35656;-93
2023/06/09 02:16:32;;;;;;;;;;;;;;;17.99;100.00;98877.94;4291850;33;34584;-94
2023/06/09 02:19:00;;;;;;;;;;;;;;;18.02;100.00;98881.34;4305029;33;33382;-95
2023/06/09 02:21:28;;;;;;;;;;;;;;;17.91;100.00;98874.84;4305071;33;34601;-93
2023/06/09 02:23:57;;;;;;;;;;;;;;;17.85;100.00;98883.00;4303791;33;35134;-94
2023/06/09 02:26:25;;;;;;;;;;;;;;;17.94;100.00;98882.56;4303790;33;33493;-94
2023/06/09 02:28:52;;;;;;;;;;;;;;;18.02;100.00;98878.72;4304112;33;32853;-94
2023/06/09 02:31:20;;;;;;;;;;;;;;;18.07;100.00;98885.50;4305011;33;33952;-94
2023/06/09 02:33:48;;;;;;;;;;;;;;;18.17;100.00;98877.97;4304809;33;36057;-93
2023/06/09 02:36:16;;;;;;;;;;;;;;;18.16;100.00;98892.94;4304923;33;34795;-94
2023/06/09 02:38:45;;;;;;;;;;;;;;;17.97;100.00;98884.22;4304966;33;33098;-94
2023/06/09 02:41:13;;;;;;;;;;;;;;;17.94;100.00;98885.22;4305065;33;33827;-94
2023/06/09 02:43:40;;;;;;;;;;;;;;;17.90;100.00;98885.44;4303949;33;35216;-94
2023/06/09 02:46:09;;;;;;;;;;;;;;;17.98;100.00;98888.53;4304725;33;35041;-92
2023/06/09 02:48:38;;;;;;;;;;;;;;;18.11;100.00;98896.72;4304745;33;32980;-93
2023/06/09 02:51:06;;;;;;;;;;;;;;;17.87;100.00;98891.69;4303505;33;33972;-93
2023/06/09 02:53:34;;;;;;;;;;;;;;;17.56;100.00;98894.88;4303763;33;35640;-94
2023/06/09 02:56:03;;;;;;;;;;;;;;;17.65;100.00;98890.97;4303554;33;34305;-94
2023/06/09 02:58:32;;;;;;;;;;;;;;;17.53;100.00;98893.25;4298433;33;34000;-94
2023/06/09 03:01:01;;;;;;;;;;;;;;;17.56;100.00;98887.87;4277004;33;32584;-93
2023/06/09 03:03:30;;;;;;;;;;;;;;;17.57;100.00;98889.56;4289067;33;35805;-93
2023/06/09 03:05:59;;;;;;;;;;;;;;;17.48;100.00;98884.72;4289160;33;34824;-95
2023/06/09 03:08:27;;;;;;;;;;;;;;;17.60;100.00;98884.16;4289313;33;33888;-93
2023/06/09 03:10:55;;;;;;;;;;;;;;;17.58;100.00;98885.16;4289101;33;32863;-94
2023/06/09 03:13:23;;;;;;;;;;;;;;;17.61;100.00;98885.88;4289072;33;35744;-93
2023/06/09 03:15:51;;;;;;;;;;;;;;;17.81;100.00;98882.28;4289033;33;35109;-92
2023/06/09 03:18:20;;;;;;;;;;;;;;;17.70;100.00;98883.72;4276867;33;32578;-92
2023/06/09 03:20:50;;;;;;;;;;;;;;;17.80;100.00;98879.72;4288356;33;33807;-91
2023/06/09 03:23:20;;;;;;;;;;;;;;;17.71;100.00;98881.00;4289152;33;34920;-92
2023/06/09 03:25:51;;;;;;;;;;;;;;;17.73;100.00;98878.31;4288768;33;35054;-92
2023/06/09 03:28:21;;;;;;;;;;;;;;;17.85;100.00;98875.09;4289012;33;33443;-92
2023/06/09 03:30:49;;;;;;;;;;;;;;;17.71;100.00;98870.47;4289713;33;33106;-93
2023/06/09 03:33:18;;;;;;;;;;;;;;;17.75;100.00;98877.31;4290061;33;36050;-93
2023/06/09 03:35:47;;;;;;;;;;;;;;;17.80;100.00;98879.72;4288967;33;34281;-93
2023/06/09 03:38:16;;;;;;;;;;;;;;;17.85;100.00;98880.34;4288628;33;33077;-93
2023/06/09 03:40:44;;;;;;;;;;;;;;;17.84;100.00;98880.44;4289630;33;34162;-93
2023/06/09 03:43:12;;;;;;;;;;;;;;;17.83;100.00;98884.00;4289749;33;35277;-92
2023/06/09 03:45:40;;;;;;;;;;;;;;;17.85;100.00;98882.16;4288784;33;35091;-93
2023/06/09 03:48:08;;;;;;;;;;;;;;;17.96;100.00;98883.34;4288762;33;33203;-93
2023/06/09 03:50:36;;;;;;;;;;;;;;;17.94;100.00;98879.94;4288561;33;34090;-94
2023/06/09 03:53:05;;;;;;;;;;;;;;;18.00;100.00;98878.81;4288449;33;35261;-93
2023/06/09 03:55:33;;;;;;;;;;;;;;;18.12;100.00;98890.50;4288539;33;34564;-94
2023/06/09 03:58:02;;;;;;;;;;;;;;;18.02;100.00;98887.50;4289624;33;33057;-94
2023/06/09 04:00:30;;;;;;;;;;;;;;;17.99;100.00;98880.56;4289481;33;34134;-94
2023/06/09 04:02:59;;;;;;;;;;;;;;;18.03;100.00;98881.28;4288397;33;35195;-93
2023/06/09 04:05:28;;;;;;;;;;;;;;;18.08;100.00;98891.59;4288163;33;35404;-92
2023/06/09 04:07:57;;;;;;;;;;;;;;;18.24;100.00;98895.19;4288192;33;33413;-94
2023/06/09 04:10:25;;;;;;;;;;;;;;;18.70;100.00;98892.03;4288293;33;34881;-94
2023/06/09 04:12:53;;;;;;;;;;;;;;;18.43;100.00;98889.84;4289112;33;35184;-94
2023/06/09 04:15:21;;;;;;;;;;;;;;;18.26;100.00;98898.59;4288278;33;34673;-93
2023/06/09 04:17:51;;;;;;;;;;;;;;;18.19;100.00;98897.19;4289414;33;33827;-93
2023/06/09 04:20:22;;;;;;;;;;;;;;;18.17;100.00;98901.69;4288168;33;34267;-92
2023/06/09 04:22:51;;;;;;;;;;;;;;;17.96;100.00;98899.16;4288227;33;35199;-92
2023/06/09 04:25:25;;;;;;;;;;;;;;;17.92;100.00;98899.41;4289391;33;34315;-92
2023/06/09 04:27:54;;;;;;;;;;;;;;;17.90;100.00;98902.09;4288706;33;33400;-93
2023/06/09 04:30:25;;;;;;;;;;;;;;;17.94;100.00;98908.91;4288304;33;34910;-92
2023/06/09 04:32:54;;;;;;;;;;;;;;;18.13;100.00;98908.88;4286274;33;34927;-91
2023/06/09 04:35:22;;;;;;;;;;;;;;;18.03;100.00;98906.78;4289668;33;34286;-90
2023/06/09 04:37:50;;;;;;;;;;;;;;;18.20;100.00;98912.09;4289680;33;33329;-91
2023/06/09 04:40:23;;;;;;;;;;;;;;;18.06;100.00;98915.38;4289675;33;34098;-92
2023/06/09 04:42:59;;;;;;;;;;;;;;;18.11;100.00;98918.66;4289707;33;36008;-91
2023/06/09 04:45:28;;;;;;;;;;;;;;;18.16;100.00;98921.06;4290484;33;34455;-90
2023/06/09 04:47:59;;;;;;;;;;;;;;;18.08;100.00;98918.78;4289692;33;33114;-91
2023/06/09 04:50:36;;;;;;;;;;;;;;;18.11;100.00;98923.09;4289325;33;33978;-92
2023/06/09 04:53:07;;;;;;;;;;;;;;;18.31;100.00;98933.47;4275180;33;35821;-91
2023/06/09 04:55:35;;;;;;;;;;;;;;;18.40;100.00;98936.59;4263463;33;35025;-91
2023/06/09 04:58:04;;;;;;;;;;;;;;;18.16;100.00;98928.97;4303892;33;32372;-91
2023/06/09 05:00:33;;;;;;;;;;;;;;;18.20;100.00;98935.81;4303936;33;34203;-91
2023/06/09 05:03:02;;;;;;;;;;;;;;;18.29;100.00;98939.78;4304855;33;35150;-92
2023/06/09 05:05:30;;;;;;;;;;;;;;;18.28;100.00;98943.31;4304120;33;35302;-92
2023/06/09 05:07:59;;;;;;;;;;;;;;;18.51;100.00;98935.16;4303456;33;33110;-91
2023/06/09 05:10:27;;;;;;;;;;;;;;;18.38;100.00;98947.22;4304040;33;34145;-92
2023/06/09 05:12:55;;;;;;;;;;;;;;;18.40;100.00;98944.53;4303136;33;35121;-93
2023/06/09 05:15:23;;;;;;;;;;;;;;;18.60;100.00;98943.50;4304977;33;35135;-91
2023/06/09 05:17:52;;;;;;;;;;;;;;;18.47;100.00;98949.41;4303624;33;33011;-91
2023/06/09 05:20:21;;;;;;;;;;;;;;;18.74;100.00;98951.59;4303609;33;34158;-92
2023/06/09 05:22:49;;;;;;;;;;;;;;;18.60;100.00;98948.78;4303287;33;35257;-91
2023/06/09 05:25:18;;;;;;;;;;;;;;;18.85;100.00;98954.59;4303549;33;35330;-91
2023/06/09 05:27:46;;;;;;;;;;;;;;;18.96;100.00;98951.38;4303346;33;33411;-91
2023/06/09 05:30:14;;;;;;;;;;;;;;;18.57;100.00;98948.03;4304027;33;34731;-93
2023/06/09 05:32:42;;;;;;;;;;;;;;;18.40;100.00;98952.44;4303083;33;34965;-91
2023/06/09 05:35:10;;;;;;;;;;;;;;;18.76;100.00;98949.75;4303459;33;34738;-91
2023/06/09 05:37:50;;;;;;;;;;;;;;;18.75;100.00;98948.87;4303521;33;33380;-91
2023/06/09 05:40:19;;;;;;;;;;;;;;;18.80;100.00;98948.66;4304492;33;33970;-91
2023/06/09 05:42:47;;;;;;;;;;;;;;;18.63;100.00;98946.84;4303305;33;35118;-92
2023/06/09 05:45:15;;;;;;;;;;;;;;;18.60;100.00;98943.50;4302787;33;35139;-92
2023/06/09 05:47:43;;;;;;;;;;;;;;;18.77;100.00;98936.47;4303147;33;32937;-91
2023/06/09 05:50:11;;;;;;;;;;;;;;;18.76;100.00;98942.69;4302986;33;35015;-91
2023/06/09 05:52:39;;;;;;;;;;;;;;;19.03;100.00;98939.59;4302947;33;35140;-92
2023/06/09 05:55:07;;;;;;;;;;;;;;;19.25;100.00;98935.81;4303318;33;34597;-91
2023/06/09 05:57:36;;;;;;;;;;;;;;;19.24;100.00;98940.25;4303192;33;33402;-92
2023/06/09 06:00:08;;;;;;;;;;;;;;;19.31;100.00;98948.72;4303410;33;33798;-91
2023/06/09 06:02:38;;;;;;;;;;;;;;;19.37;100.00;98948.38;4291198;33;34345;-91
2023/06/09 06:05:07;;;;;;;;;;;;;;;19.35;100.00;98954.69;4304435;33;35123;-91
2023/06/09 06:07:36;;;;;;;;;;;;;;;19.63;100.00;98944.31;4304195;33;33417;-92
2023/06/09 06:10:04;;;;;;;;;;;;;;;19.64;100.00;98947.81;4303348;33;34015;-91
2023/06/09 06:12:32;;;;;;;;;;;;;;;19.17;100.00;98948.59;4302773;33;35714;-90
2023/06/09 06:15:00;;;;;;;;;;;;;;;19.36;100.00;98937.88;4303165;33;34483;-91
2023/06/09 06:17:30;;;;;;;;;;;;;;;19.47;100.00;98941.66;4303025;33;33408;-92
2023/06/09 06:19:58;;;;;;;;;;;;;;;19.55;100.00;98946.53;4304141;33;35049;-92
2023/06/09 06:22:26;;;;;;;;;;;;;;;19.65;100.00;98949.53;4304374;33;35117;-93
2023/06/09 06:24:53;;;;;;;;;;;;;;;20.02;97.36;98961.59;4304328;33;34617;-91
2023/06/09 06:27:22;;;;;;;;;;;;;;;19.60;99.50;98964.78;4304167;33;33437;-92
2023/06/09 06:29:50;;;;;;;;;;;;;;;19.64;100.00;98963.66;4303215;33;34944;-91
2023/06/09 06:32:17;;;;;;;;;;;;;;;19.70;100.00;98971.28;4302895;33;35046;-91
2023/06/09 06:34:46;;;;;;;;;;;;;;;19.86;100.00;98964.22;4303079;33;35421;-92
2023/06/09 06:37:14;;;;;;;;;;;;;;;19.89;100.00;98964.06;4304108;33;33364;-92
2023/06/09 06:39:41;;;;;;;;;;;;;;;19.97;100.00;98966.28;4304506;33;34115;-92
2023/06/09 06:42:10;;;;;;;;;;;;;;;20.01;100.00;98961.69;4304607;33;34964;-91
2023/06/09 06:44:43;;;;;;;;;;;;;;;19.80;100.00;98961.06;4303773;33;35441;-92
2023/06/09 06:47:11;;;;;;;;;;;;;;;20.15;100.00;98967.03;4291846;33;33164;-93
2023/06/09 06:49:39;;;;;;;;;;;;;;;20.28;100.00;98972.50;4304772;33;34269;-92
2023/06/09 06:52:07;;;;;;;;;;;;;;;20.25;100.00;98972.69;4291692;33;34935;-92
2023/06/09 06:54:35;;;;;;;;;;;;;;;20.28;100.00;98985.72;4304856;33;34646;-92
2023/06/09 06:57:03;;;;;;;;;;;;;;;20.21;100.00;98989.66;4303595;33;32880;-93
2023/06/09 06:59:30;;;;;;;;;;;;;;;20.43;99.68;98984.00;4303790;33;34587;-91
2023/06/09 07:01:58;;;;;;;;;;;;;;;20.28;100.00;98991.03;4293119;33;35177;-91
2023/06/09 07:04:26;;;;;;;;;;;;;;;20.32;100.00;98987.25;4288463;33;34406;-92
2023/06/09 07:06:56;;;;;;;;;;;;;;;20.39;100.00;98991.25;4288779;33;34093;-91
2023/06/09 07:09:25;;;;;;;;;;;;;;;20.39;100.00;98985.97;4288380;33;34300;-91
2023/06/09 07:11:52;;;;;;;;;;;;;;;20.43;100.00;98976.91;4289056;33;35836;-90
2023/06/09 07:14:20;;;;;;;;;;;;;;;20.51;96.49;98980.94;4289443;33;33971;-91
2023/06/09 07:16:48;;;;;;;;;;;;;;;20.43;98.47;98994.56;4289685;33;33112;-92
2023/06/09 07:19:16;;;;;;;;;;;;;;;20.58;99.30;98984.94;4288269;33;34175;-91
2023/06/09 07:21:44;;;;;;;;;;;;;;;20.89;93.59;98980.50;4288259;33;35128;-92
2023/06/09 07:24:12;;;;;;;;;;;;;;;21.09;92.05;98992.56;4288395;33;35426;-91
2023/06/09 07:26:40;;;;;;;;;;;;;;;20.89;94.28;98986.66;4288069;33;32969;-92
2023/06/09 07:29:07;;;;;;;;;;;;;;;21.58;88.18;98994.91;4288018;33;33827;-91
2023/06/09 07:31:36;;;;;;;;;;;;;;;21.24;89.78;98988.16;4287959;33;35229;-92
2023/06/09 07:34:03;;;;;;;;;;;;;;;21.15;90.91;98987.75;4288093;33;35322;-92
2023/06/09 07:36:35;;;;;;;;;;;;;;;21.09;95.51;98984.59;4288013;33;33371;-91
2023/06/09 07:39:04;;;;;;;;;;;;;;;21.23;96.74;98989.97;4287979;33;34578;-91
2023/06/09 07:41:31;;;;;;;;;;;;;;;21.22;94.37;98985.59;4288924;33;36010;-91
2023/06/09 07:43:59;;;;;;;;;;;;;;;21.28;94.62;98987.84;4289046;33;34817;-90
2023/06/09 07:46:30;;;;;;;;;;;;;;;21.06;95.88;98987.47;4288986;33;34039;-91
2023/06/09 07:48:58;;;;;;;;;;;;;;;21.09;97.04;98980.19;4287954;33;34827;-92
2023/06/09 07:51:26;;;;;;;;;;;;;;;21.31;94.67;98981.53;4288776;33;34876;-91
2023/06/09 07:53:54;;;;;;;;;;;;;;;21.18;93.11;98976.97;4287784;33;34721;-94
2023/06/09 07:56:22;;;;;;;;;;;;;;;20.71;99.28;98979.81;4258789;33;938906;-92
2023/06/09 07:58:50;;;;;;;;;;;;;;;20.71;95.29;98971.87;4275647;33;33887;-91
2023/06/09 08:01:18;;;;;;;;;;;;;;;20.42;97.54;98967.28;4288841;33;36107;-90
2023/06/09 08:03:46;;;;;;;;;;;;;;;20.24;100.00;98963.91;4288747;33;35011;-91
2023/06/09 08:06:15;;;;;;;;;;;;;;;20.22;100.00;98965.78;4288901;33;34170;-92
2023/06/09 08:08:43;;;;;;;;;;;;;;;20.37;98.02;98968.50;4289276;33;34619;-90
2023/06/09 08:11:12;;;;;;;;;;;;;;;20.52;100.00;98957.00;4289621;33;36030;-90
2023/06/09 08:13:39;;;;;;;;;;;;;;;20.62;99.23;98966.16;4289597;33;34582;-90
2023/06/09 08:16:07;;;;;;;;;;;;;;;20.47;100.00;98964.34;4289442;33;32927;-92
2023/06/09 08:18:36;;;;;;;;;;;;;;;20.50;100.00;98960.69;4289588;33;34895;-91
2023/06/09 08:21:04;;;;;;;;;;;;;;;20.60;99.14;98960.06;4289507;33;34830;-92
2023/06/09 08:23:32;;;;;;;;;;;;;;;20.26;100.00;98964.66;4289687;33;34348;-92
2023/06/09 08:26:00;;;;;;;;;;;;;;;20.39;100.00;98967.44;4290509;33;33380;-93
2023/06/09 08:28:28;;;;;;;;;;;;;;;20.40;100.00;98958.59;4290575;33;33937;-92
2023/06/09 08:30:56;;;;;;;;;;;;;;;20.24;100.00;98969.19;4290143;33;35987;-94
2023/06/09 08:33:26;;;;;;;;;;;;;;;20.21;100.00;98968.50;4289985;33;34703;-90
2023/06/09 08:35:53;;;;;;;;;;;;;;;20.16;100.00;98968.75;4290148;33;32970;-91
2023/06/09 08:38:21;;;;;;;;;;;;;;;20.42;99.55;98964.63;4290097;33;34213;-91
2023/06/09 08:40:50;;;;;;;;;;;;;;;20.48;100.00;98958.13;4291305;33;35761;-92
2023/06/09 08:43:18;;;;;;;;;;;;;;;20.52;99.28;98967.59;4291261;33;34374;-90
2023/06/09 08:45:46;;;;;;;;;;;;;;;20.45;100.00;98960.94;4290195;33;33314;-91
2023/06/09 08:48:16;;;;;;;;;;;;;;;20.54;96.22;98973.66;4290022;33;34276;-94
2023/06/09 08:50:43;;;;;;;;;;;;;;;20.64;96.69;98977.50;4289932;33;35121;-94
2023/06/09 08:53:11;;;;;;;;;;;;;;;21.07;96.46;98973.25;4277958;33;33267;-94
2023/06/09 08:55:39;;;;;;;;;;;;;;;21.35;94.62;98983.03;4289925;33;33305;-94
2023/06/09 08:58:07;;;;;;;;;;;;;;;21.53;91.85;98984.63;4278677;33;33919;-94
2023/06/09 09:00:35;;;;;;;;;;;;;;;21.56;93.71;98980.91;4290414;33;35746;-96
2023/06/09 09:03:03;;;;;;;;;;;;;;;21.77;92.43;98990.16;4277949;33;34806;-93
2023/06/09 09:05:31;;;;;;;;;;;;;;;21.82;89.53;98991.69;4290411;33;33836;-94
2023/06/09 09:07:59;;;;;;;;;;;;;;;21.52;86.52;98985.53;4289550;33;32723;-95
2023/06/09 09:10:28;;;;;;;;;;;;;;;21.45;91.87;98986.84;4289205;33;35195;-95
2023/06/09 09:12:56;;;;;;;;;;;;;;;21.92;85.64;98998.97;4287463;33;34293;-93
2023/06/09 09:15:26;;;;;;;;;;;;;;;21.90;87.41;98994.69;4290372;33;34046;-95
2023/06/09 09:17:55;;;;;;;;;;;;;;;21.86;87.23;98990.53;4290341;33;34133;-95
2023/06/09 09:20:30;;;;;;;;;;;;;;;22.35;84.00;98992.75;4288467;33;35182;-94
2023/06/09 09:22:58;;;;;;;;;;;;;;;22.30;83.55;98986.87;4288672;33;34613;-93
2023/06/09 09:25:27;;;;;;;;;;;;;;;22.73;81.00;98994.69;4288749;33;34123;-94
2023/06/09 09:28:04;;;;;;;;;;;;;;;21.93;85.57;98989.22;4289407;33;34210;-96
2023/06/09 09:30:46;;;;;;;;;;;;;;;22.24;85.50;98982.81;4290610;33;35246;-94
2023/06/09 09:33:16;;;;;;;;;;;;;;;21.65;83.74;98990.94;4289386;33;34611;-95
2023/06/09 09:35:46;;;;;;;;;;;;;;;22.09;83.43;98987.28;4290915;33;33786;-94
2023/06/09 09:38:24;;;;;;;;;;;;;;;22.18;85.74;98993.78;4289335;33;34899;-95
2023/06/09 09:40:52;;;;;;;;;;;;;;;22.06;83.86;98994.56;4277613;33;34089;-94
2023/06/09 09:43:21;;;;;;;;;;;;;;;22.48;83.06;98992.78;4290786;33;34786;-94
2023/06/09 09:45:50;;;;;;;;;;;;;;;22.40;85.35;98989.81;4289714;33;33707;-96
2023/06/09 09:48:20;;;;;;;;;;;;;;;22.38;84.58;98995.22;4290736;33;35037;-94
2023/06/09 09:50:48;;;;;;;;;;;;;;;22.56;81.79;98992.31;4277507;33;33804;-94
2023/06/09 09:53:16;;;;;;;;;;;;;;;22.67;79.89;98989.78;4289580;33;34555;-95
2023/06/09 09:55:45;;;;;;;;;;;;;;;22.42;83.81;98994.06;4289839;33;33377;-95
2023/06/09 09:58:13;;;;;;;;;;;;;;;22.55;83.09;98990.59;4289484;33;34909;-93
2023/06/09 10:00:42;;;;;;;;;;;;;;;22.20;80.71;98988.41;4289503;33;35314;-94
2023/06/09 10:03:14;;;;;;;;;;;;;;;21.92;80.91;98987.53;4289519;33;34641;-94
2023/06/09 10:05:43;;;;;;;;;;;;;;;21.94;82.44;98990.94;4289499;33;33266;-93
2023/06/09 10:08:12;;;;;;;;;;;;;;;22.40;78.79;98990.66;4289599;33;34118;-94
2023/06/09 10:10:42;;;;;;;;;;;;;;;21.93;81.75;98982.09;4289523;33;34973;-95
2023/06/09 10:13:10;;;;;;;;;;;;;;;21.65;83.04;98990.09;4290575;33;34721;-94
2023/06/09 10:15:40;;;;;;;;;;;;;;;21.68;82.52;98985.44;4277545;33;32798;-94
2023/06/09 10:18:08;;;;;;;;;;;;;;;21.51;83.56;98983.00;4289385;33;34950;-94
2023/06/09 10:20:36;;;;;;;;;;;;;;;22.06;81.99;98976.88;4289381;33;34246;-93
2023/06/09 10:23:05;;;;;;;;;;;;;;;22.27;80.35;98979.13;4277639;33;34764;-93
2023/06/09 10:25:33;;;;;;;;;;;;;;;21.86;79.51;98972.00;4289392;33;34127;-94
2023/06/09 10:28:01;;;;;;;;;;;;;;;22.12;79.44;98979.13;4277250;33;34179;-94
2023/06/09 10:30:29;;;;;;;;;;;;;;;21.83;80.97;98973.06;4289244;33;36103;-94
2023/06/09 10:32:57;;;;;;;;;;;;;;;22.11;78.76;98968.62;4289364;33;34719;-94
2023/06/09 10:35:26;;;;;;;;;;;;;;;21.63;82.92;98970.78;4290517;33;33083;-94
2023/06/09 10:37:56;;;;;;;;;;;;;;;21.79;81.86;98968.88;4289213;33;34190;-94
2023/06/09 10:40:26;;;;;;;;;;;;;;;21.72;83.69;98973.69;4289077;33;36058;-95
2023/06/09 10:43:12;;;;;;;;;;;;;;;22.13;77.99;98974.66;4277312;33;33063;-94
2023/06/09 10:45:50;;;;;;;;;;;;;;;21.72;82.73;98972.84;4289212;33;34150;-95
2023/06/09 10:48:37;;;;;;;;;;;;;;;21.42;84.38;98967.62;4289298;33;34904;-94
2023/06/09 10:51:23;;;;;;;;;;;;;;;21.82;82.76;98967.84;4290297;33;35329;-94
2023/06/09 10:54:17;;;;;;;;;;;;;;;21.92;78.06;98976.94;4290238;33;34817;-94
2023/06/09 10:56:48;;;;;;;;;;;;;;;22.18;79.07;98969.94;4289819;33;33085;-95
2023/06/09 10:59:25;;;;;;;;;;;;;;;21.85;80.81;98955.25;4277433;33;34800;-94
2023/06/09 11:02:02;;;;;;;;;;;;;;;21.95;80.29;98958.16;4289281;33;35179;-95
2023/06/09 11:04:37;;;;;;;;;;;;;;;22.68;77.12;98946.38;4290283;33;34718;-95
2023/06/09 11:07:12;;;;;;;;;;;;;;;22.12;77.50;98942.00;4289024;33;33310;-95
2023/06/09 11:09:41;;;;;;;;;;;;;;;22.42;76.78;98938.34;4289006;33;34990;-94
2023/06/09 11:12:20;;;;;;;;;;;;;;;22.06;74.77;98941.53;4288716;33;35349;-94
2023/06/09 11:14:51;;;;;;;;;;;;;;;22.06;78.68;98936.25;4288878;33;34617;-93
2023/06/09 11:17:36;;;;;;;;;;;;;;;22.71;75.69;98935.53;4289101;33;33258;-94
2023/06/09 11:20:07;;;;;;;;;;;;;;;22.09;75.34;98930.75;4276903;33;33061;-94
2023/06/09 11:22:51;;;;;;;;;;;;;;;22.06;83.64;98939.78;4288994;33;35689;-94
2023/06/09 11:25:19;;;;;;;;;;;;;;;22.37;79.93;98935.13;4290220;33;35464;-94
2023/06/09 11:27:56;;;;;;;;;;;;;;;22.75;76.11;98938.81;4290109;33;33366;-93
2023/06/09 11:30:25;;;;;;;;;;;;;;;22.66;72.23;98937.66;4289963;33;34892;-94
2023/06/09 11:32:56;;;;;;;;;;;;;;;22.63;72.79;98940.53;4289857;33;36105;-94
2023/06/09 11:35:46;;;;;;;;;;;;;;;22.64;75.78;98936.91;4288234;33;34347;-95
2023/06/09 11:38:19;;;;;;;;;;;;;;;22.65;73.87;98931.50;4289834;33;32815;-94
2023/06/09 11:40:51;;;;;;;;;;;;;;;23.09;70.13;98932.97;4288744;33;34097;-94
2023/06/09 11:43:22;;;;;;;;;;;;;;;22.50;73.04;98929.84;4278112;33;35323;-94
2023/06/09 11:45:50;;;;;;;;;;;;;;;22.91;72.96;98927.06;4290426;33;34317;-94
2023/06/09 11:48:17;;;;;;;;;;;;;;;23.14;70.87;98930.00;4290359;33;34023;-94
2023/06/09 11:50:46;;;;;;;;;;;;;;;23.20;71.36;98918.94;4291524;33;34121;-94
2023/06/09 11:53:18;;;;;;;;;;;;;;;22.40;71.07;98924.31;4290263;33;36120;-93
2023/06/09 11:55:46;;;;;;;;;;;;;;;22.70;75.42;98923.22;4290300;33;34813;-94
2023/06/09 11:58:15;;;;;;;;;;;;;;;23.18;71.29;98925.31;4290425;33;34158;-94
2023/06/09 12:00:44;;;;;;;;;;;;;;;23.13;71.40;98927.44;4290064;33;32928;-94
2023/06/09 12:03:13;;;;;;;;;;;;;;;23.32;72.13;98930.50;4290281;33;35380;-95
2023/06/09 12:05:45;;;;;;;;;;;;;;;23.38;73.09;98931.88;4291416;33;34561;-94
2023/06/09 12:08:14;;;;;;;;;;;;;;;23.83;70.37;98932.28;4290276;33;33333;-94
2023/06/09 12:10:42;;;;;;;;;;;;;;;23.40;70.93;98930.84;4290257;33;33789;-95
2023/06/09 12:13:09;;;;;;;;;;;;;;;23.89;68.53;98929.16;4277920;33;34261;-94
2023/06/09 12:15:38;;;;;;;;;;;;;;;23.95;68.28;98931.38;4290197;33;34646;-94
2023/06/09 12:18:05;;;;;;;;;;;;;;;23.45;69.35;98934.03;4291372;33;32877;-94
2023/06/09 12:20:34;;;;;;;;;;;;;;;23.54;72.54;98931.66;4278197;33;32635;-94
2023/06/09 12:23:03;;;;;;;;;;;;;;;23.50;69.58;98930.19;4290264;33;35115;-95
2023/06/09 12:25:41;;;;;;;;;;;;;;;23.40;74.19;98922.88;4291153;33;34432;-94
2023/06/09 12:28:23;;;;;;;;;;;;;;;23.42;68.32;98928.06;4290090;33;33441;-94
2023/06/09 12:30:53;;;;;;;;;;;;;;;23.77;68.19;98922.03;4278056;33;33969;-93
2023/06/09 12:33:25;;;;;;;;;;;;;;;23.73;69.09;98921.41;4290069;33;35209;-94
2023/06/09 12:36:10;;;;;;;;;;;;;;;24.09;67.99;98918.87;4290152;33;35248;-94
2023/06/09 12:38:38;;;;;;;;;;;;;;;23.94;69.85;98913.72;4291308;33;34169;-94
2023/06/09 12:41:07;;;;;;;;;;;;;;;24.22;64.79;98917.88;4290094;33;34305;-95
2023/06/09 12:43:45;;;;;;;;;;;;;;;24.36;63.66;98908.84;4290035;33;35248;-94
2023/06/09 12:46:17;;;;;;;;;;;;;;;24.50;62.94;98909.66;4290034;33;34275;-93
2023/06/09 12:49:02;;;;;;;;;;;;;;;23.39;69.25;98904.37;4291140;33;34107;-94
2023/06/09 12:51:30;;;;;;;;;;;;;;;24.46;62.26;98897.50;4291158;33;34309;-94
2023/06/09 12:53:58;;;;;;;;;;;;;;;24.74;62.44;98899.84;4290030;33;35251;-95